Time;durP1;ratioP1;P1;durP2;ratioP2;P2;SDS_P1;SDS_P2;PMS_P1;PMS_P2;Temp;Humidity;BMP_temperature;BMP_pressure;BME280_temperature;BME280_humidity;BME280_pressure;Samples;Min_cycle;Max_cycle;Signal;HPM_P1;HPM_P2
2023/12/03 00:02:02;;;;;;;27.70;14.45;;;;;;;-0.80;100.00;101077.22;6100382;23;20404;-78
2023/12/03 00:04:29;;;;;;;23.73;12.30;;;;;;;-0.81;100.00;101069.44;6122812;23;20018;-78
2023/12/03 00:06:56;;;;;;;27.13;13.55;;;;;;;-0.85;100.00;101073.56;6123098;23;20080;-80
2023/12/03 00:09:23;;;;;;;27.92;14.55;;;;;;;-0.86;100.00;101069.22;6097425;23;20025;-80
2023/12/03 00:11:49;;;;;;;25.80;13.48;;;;;;;-0.97;100.00;101066.19;6098794;23;20025;-78
2023/12/03 00:14:16;;;;;;;24.42;13.20;;;;;;;-0.94;100.00;101070.56;6122694;23;20038;-78
2023/12/03 00:16:42;;;;;;;27.15;13.25;;;;;;;-0.88;100.00;101058.88;6099435;23;20033;-79
2023/12/03 00:19:09;;;;;;;24.85;12.63;;;;;;;-0.88;100.00;101066.59;6098466;23;20459;-80
2023/12/03 00:21:35;;;;;;;28.23;11.75;;;;;;;-0.82;100.00;101059.94;6121124;23;20033;-78
2023/12/03 00:24:08;;;;;;;25.08;12.68;;;;;;;-0.89;100.00;101066.53;6097658;23;20842;-82
2023/12/03 00:26:35;;;;;;;25.08;12.65;;;;;;;-0.85;100.00;101064.16;6123528;23;20465;-80
2023/12/03 00:29:02;;;;;;;23.48;11.27;;;;;;;-0.87;100.00;101070.06;6098326;23;20652;-81
2023/12/03 00:31:29;;;;;;;26.15;12.10;;;;;;;-0.85;100.00;101061.59;6097508;23;20025;-79
2023/12/03 00:33:56;;;;;;;31.05;13.98;;;;;;;-0.81;100.00;101070.31;6097941;23;20215;-80
2023/12/03 00:36:22;;;;;;;24.73;11.45;;;;;;;-0.88;100.00;101068.28;6123103;23;20026;-80
2023/12/03 00:38:52;;;;;;;29.25;12.70;;;;;;;-0.83;100.00;101069.38;6094382;23;20021;-79
2023/12/03 00:41:19;;;;;;;22.90;10.52;;;;;;;-0.81;100.00;101066.84;6097518;23;20025;-79
2023/12/03 00:43:46;;;;;;;24.58;11.82;;;;;;;-0.83;100.00;101074.50;6097066;23;20107;-78
2023/12/03 00:46:12;;;;;;;22.55;11.48;;;;;;;-0.85;100.00;101071.88;6122131;23;20029;-80
2023/12/03 00:48:40;;;;;;;27.90;11.90;;;;;;;-0.77;100.00;101074.78;6121414;23;20344;-79
2023/12/03 00:51:07;;;;;;;22.23;11.38;;;;;;;-0.78;100.00;101072.13;6097324;23;20021;-80
2023/12/03 00:53:34;;;;;;;19.67;10.15;;;;;;;-0.80;100.00;101078.91;6098385;23;20048;-79
2023/12/03 00:56:01;;;;;;;28.20;12.13;;;;;;;-0.76;100.00;101079.09;6097173;23;20112;-81
2023/12/03 00:58:28;;;;;;;26.02;12.95;;;;;;;-0.71;100.00;101079.31;6098059;23;20517;-80
2023/12/03 01:00:56;;;;;;;25.45;11.85;;;;;;;-0.74;100.00;101071.47;6099574;23;20096;-78
2023/12/03 01:03:23;;;;;;;24.45;12.90;;;;;;;-0.71;100.00;101084.44;6125444;23;20388;-79
2023/12/03 01:05:49;;;;;;;18.70;11.20;;;;;;;-0.76;100.00;101076.53;6101369;23;20678;-77
2023/12/03 01:08:16;;;;;;;20.83;11.38;;;;;;;-0.70;100.00;101079.38;6099109;23;20060;-77
2023/12/03 01:10:43;;;;;;;22.60;11.65;;;;;;;-0.69;100.00;101077.69;6098957;23;20079;-79
2023/12/03 01:13:10;;;;;;;19.60;10.45;;;;;;;-0.70;100.00;101081.06;6124823;23;20013;-81
2023/12/03 01:15:36;;;;;;;20.20;12.15;;;;;;;-0.71;100.00;101084.44;6124827;23;20108;-80
2023/12/03 01:18:03;;;;;;;22.98;11.02;;;;;;;-0.71;100.00;101089.59;6099975;23;20487;-78
2023/12/03 01:20:30;;;;;;;17.83;10.20;;;;;;;-0.71;100.00;101084.44;6123504;23;20025;-80
2023/12/03 01:22:57;;;;;;;19.52;11.13;;;;;;;-0.76;100.00;101084.22;6101403;23;20026;-77
2023/12/03 01:25:23;;;;;;;20.48;10.57;;;;;;;-0.73;100.00;101088.63;6099193;23;20017;-79
2023/12/03 01:27:52;;;;;;;27.67;11.27;;;;;;;-0.77;100.00;101082.50;6124990;23;20095;-81
2023/12/03 01:30:21;;;;;;;25.42;12.70;;;;;;;-0.81;100.00;101082.28;6122216;23;20026;-78
2023/12/03 01:32:48;;;;;;;24.88;10.95;;;;;;;-0.78;100.00;101092.69;6098897;23;20032;-80
2023/12/03 01:35:15;;;;;;;25.50;11.77;;;;;;;-0.75;100.00;101092.84;6098196;23;20022;-79
2023/12/03 01:37:41;;;;;;;26.30;10.98;;;;;;;-0.76;100.00;101098.78;6099286;23;20525;-80
2023/12/03 01:40:09;;;;;;;25.23;12.38;;;;;;;-0.77;100.00;101099.59;6123036;23;20029;-79
2023/12/03 01:42:36;;;;;;;24.40;14.27;;;;;;;-0.76;100.00;101102.22;6096645;23;20511;-79
2023/12/03 01:45:03;;;;;;;27.15;12.52;;;;;;;-0.78;100.00;101098.72;6100324;23;20021;-79
2023/12/03 01:47:30;;;;;;;25.90;13.18;;;;;;;-0.74;100.00;101108.34;6100089;23;20025;-81
2023/12/03 01:50:08;;;;;;;27.50;13.93;;;;;;;-0.76;100.00;101111.66;6121841;23;20021;-77
2023/12/03 01:52:39;;;;;;;25.42;12.95;;;;;;;-0.73;100.00;101112.66;6099392;23;20423;-78
2023/12/03 01:55:12;;;;;;;24.48;12.35;;;;;;;-0.71;100.00;101112.72;6120655;23;20048;-80
2023/12/03 01:57:39;;;;;;;24.80;12.50;;;;;;;-0.72;100.00;101122.16;6100444;23;20381;-80
2023/12/03 02:00:07;;;;;;;27.60;13.48;;;;;;;-0.67;100.00;101124.91;6098963;23;20482;-79
2023/12/03 02:02:35;;;;;;;29.35;14.30;;;;;;;-0.64;100.00;101121.59;6098955;23;20021;-79
2023/12/03 02:05:02;;;;;;;32.85;16.58;;;;;;;-0.63;100.00;101115.63;6100344;23;20347;-80
2023/12/03 02:07:29;;;;;;;35.70;16.38;;;;;;;-0.63;100.00;101119.09;6098381;23;20047;-80
2023/12/03 02:09:55;;;;;;;37.72;15.48;;;;;;;-0.64;100.00;101121.59;6121870;23;20434;-78
2023/12/03 02:12:22;;;;;;;31.58;15.80;;;;;;;-0.68;100.00;101116.31;6122710;23;20563;-79
2023/12/03 02:14:49;;;;;;;34.40;16.38;;;;;;;-0.69;100.00;101114.56;6122235;23;20463;-80
2023/12/03 02:17:16;;;;;;;39.60;19.42;;;;;;;-0.65;100.00;101118.16;6099070;23;20031;-79
2023/12/03 02:19:43;;;;;;;40.03;18.73;;;;;;;-0.72;100.00;101121.25;6097284;23;20450;-81
2023/12/03 02:22:10;;;;;;;39.63;18.65;;;;;;;-0.74;100.00;101120.31;6099373;23;20025;-78
2023/12/03 02:24:36;;;;;;;35.92;18.50;;;;;;;-0.72;100.00;101117.00;6123396;23;20044;-78
2023/12/03 02:27:03;;;;;;;41.58;19.70;;;;;;;-0.73;100.00;101120.38;6099448;23;20025;-79
2023/12/03 02:29:30;;;;;;;47.58;20.90;;;;;;;-0.68;100.00;101124.03;6097990;23;20068;-79
2023/12/03 02:31:57;;;;;;;40.60;20.08;;;;;;;-0.68;100.00;101126.59;6123688;23;20116;-78
2023/12/03 02:34:24;;;;;;;38.28;19.38;;;;;;;-0.67;100.00;101123.19;6122239;23;20022;-79
2023/12/03 02:36:50;;;;;;;40.80;19.50;;;;;;;-0.62;100.00;101127.69;6123900;23;20021;-80
2023/12/03 02:39:20;;;;;;;50.65;23.95;;;;;;;-0.59;100.00;101127.81;6122416;23;20092;-78
2023/12/03 02:41:47;;;;;;;45.45;22.88;;;;;;;-0.58;100.00;101125.31;6122740;23;20072;-79
2023/12/03 02:44:13;;;;;;;41.22;21.38;;;;;;;-0.60;100.00;101126.06;6117324;23;20077;-79
2023/12/03 02:46:40;;;;;;;41.17;19.23;;;;;;;-0.65;100.00;101132.69;6122983;23;20667;-79
2023/12/03 02:49:06;;;;;;;43.70;20.10;;;;;;;-0.67;100.00;101120.63;6123023;23;20017;-79
2023/12/03 02:51:33;;;;;;;39.95;20.80;;;;;;;-0.68;100.00;101128.28;6099752;23;20700;-79
2023/12/03 02:53:59;;;;;;;41.30;20.35;;;;;;;-0.67;100.00;101130.91;6098434;23;20013;-80
2023/12/03 02:56:28;;;;;;;45.13;22.63;;;;;;;-0.67;100.00;101135.19;6099252;23;20033;-78
2023/12/03 02:58:55;;;;;;;38.00;19.42;;;;;;;-0.61;100.00;101132.91;6097402;23;20060;-79
2023/12/03 03:01:21;;;;;;;41.13;20.95;;;;;;;-0.55;100.00;101138.31;6098182;23;20034;-81
2023/12/03 03:03:48;;;;;;;42.55;21.17;;;;;;;-0.57;100.00;101136.50;6122600;23;20051;-80
2023/12/03 03:06:15;;;;;;;44.55;21.42;;;;;;;-0.54;100.00;101140.06;6098622;23;20022;-80
2023/12/03 03:08:41;;;;;;;43.10;21.75;;;;;;;-0.58;100.00;101139.88;6099150;23;20513;-78
2023/12/03 03:11:09;;;;;;;46.40;21.05;;;;;;;-0.60;100.00;101138.91;6098589;23;20325;-79
2023/12/03 03:13:36;;;;;;;43.47;21.25;;;;;;;-0.62;100.00;101146.56;6122796;23;20031;-79
2023/12/03 03:16:03;;;;;;;46.80;21.98;;;;;;;-0.59;100.00;101141.53;6098674;23;20450;-80
2023/12/03 03:18:29;;;;;;;50.53;24.23;;;;;;;-0.57;100.00;101149.34;6098441;23;20056;-79
2023/12/03 03:20:56;;;;;;;46.15;22.20;;;;;;;-0.61;100.00;101144.84;6121578;23;20021;-79
2023/12/03 03:23:23;;;;;;;40.78;20.77;;;;;;;-0.57;100.00;101139.94;6096549;23;20218;-79
2023/12/03 03:25:49;;;;;;;43.45;21.10;;;;;;;-0.62;100.00;101137.97;6097984;23;20085;-79
2023/12/03 03:28:17;;;;;;;45.03;21.65;;;;;;;-0.58;100.00;101143.31;6097149;23;20025;-78
2023/12/03 03:30:44;;;;;;;46.88;22.58;;;;;;;-0.55;100.00;101140.00;6096513;23;20080;-79
2023/12/03 03:33:10;;;;;;;40.58;22.55;;;;;;;-0.57;100.00;101139.06;6097814;23;20022;-79
2023/12/03 03:35:37;;;;;;;48.08;21.90;;;;;;;-0.56;100.00;101135.66;6122310;23;20506;-78
2023/12/03 03:38:03;;;;;;;47.95;22.40;;;;;;;-0.59;100.00;101140.69;6096716;23;20350;-80
2023/12/03 03:40:30;;;;;;;44.22;21.05;;;;;;;-0.65;100.00;101148.09;6120381;23;20363;-80
2023/12/03 03:42:57;;;;;;;41.40;20.30;;;;;;;-0.59;100.00;101146.69;6120992;23;20053;-81
2023/12/03 03:45:23;;;;;;;50.90;22.70;;;;;;;-0.54;100.00;101145.19;6120719;23;20514;-81
2023/12/03 03:47:50;;;;;;;43.13;20.95;;;;;;;-0.51;100.00;101150.50;6093667;23;20026;-78
2023/12/03 03:50:16;;;;;;;45.08;22.08;;;;;;;-0.50;100.00;101146.22;6096384;23;20025;-79
2023/12/03 03:52:43;;;;;;;41.92;21.77;;;;;;;-0.51;100.00;101150.50;6121992;23;20022;-79
2023/12/03 03:55:10;;;;;;;46.58;22.98;;;;;;;-0.57;100.00;101149.34;6097613;23;20022;-79
2023/12/03 03:57:36;;;;;;;46.05;20.20;;;;;;;-0.58;100.00;101145.88;6096776;23;20025;-78
2023/12/03 04:00:05;;;;;;;51.72;22.85;;;;;;;-0.47;100.00;101153.19;6095291;23;20100;-79
2023/12/03 04:02:32;;;;;;;49.10;23.58;;;;;;;-0.55;100.00;101152.84;6097536;23;20029;-80
2023/12/03 04:04:59;;;;;;;46.92;21.80;;;;;;;-0.61;100.00;101156.03;6095673;23;20439;-79
2023/12/03 04:07:25;;;;;;;46.85;20.88;;;;;;;-0.59;100.00;101159.53;6097105;23;20407;-80
2023/12/03 04:09:52;;;;;;;41.58;21.67;;;;;;;-0.57;100.00;101162.22;6120042;23;20056;-79
2023/12/03 04:12:19;;;;;;;40.42;20.90;;;;;;;-0.58;100.00;101160.44;6121197;23;20017;-79
2023/12/03 04:14:45;;;;;;;47.42;23.77;;;;;;;-0.61;100.00;101162.84;6121008;23;20614;-79
2023/12/03 04:17:11;;;;;;;50.00;23.90;;;;;;;-0.63;100.00;101161.94;6121229;23;20025;-81
2023/12/03 04:19:38;;;;;;;41.08;20.98;;;;;;;-0.59;100.00;101168.97;6095591;23;20017;-81
2023/12/03 04:22:05;;;;;;;52.47;24.48;;;;;;;-0.57;100.00;101167.34;6121761;23;20057;-80
2023/12/03 04:24:34;;;;;;;46.28;23.75;;;;;;;-0.52;100.00;101158.16;6121696;23;20101;-80
2023/12/03 04:27:01;;;;;;;44.97;22.05;;;;;;;-0.52;100.00;101168.44;6122537;23;20443;-80
2023/12/03 04:29:27;;;;;;;44.25;21.48;;;;;;;-0.48;100.00;101160.03;6095608;23;20029;-79
2023/12/03 04:31:54;;;;;;;51.50;22.98;;;;;;;-0.48;100.00;101165.19;6097429;23;20021;-79
2023/12/03 04:34:21;;;;;;;49.17;23.23;;;;;;;-0.53;100.00;101164.09;6120492;23;20032;-79
2023/12/03 04:36:48;;;;;;;44.22;22.10;;;;;;;-0.52;100.00;101166.72;6121777;23;20025;-79
2023/12/03 04:39:16;;;;;;;46.72;23.23;;;;;;;-0.48;100.00;101167.75;6096546;23;20025;-79
2023/12/03 04:41:42;;;;;;;47.10;21.50;;;;;;;-0.45;100.00;101165.31;6096526;23;20080;-80
2023/12/03 04:44:09;;;;;;;50.80;24.27;;;;;;;-0.36;100.00;101165.72;6121206;23;20394;-79
2023/12/03 04:46:41;;;;;;;44.88;21.50;;;;;;;-0.36;100.00;101168.28;6120697;23;20025;-80
2023/12/03 04:49:09;;;;;;;57.67;25.17;;;;;;;-0.34;100.00;101169.25;6118331;23;20029;-81
2023/12/03 04:51:35;;;;;;;56.00;23.75;;;;;;;-0.31;100.00;101172.75;6120366;23;20423;-80
2023/12/03 04:54:04;;;;;;;44.90;21.92;;;;;;;-0.33;100.00;101175.25;6097473;23;20029;-78
2023/12/03 04:56:31;;;;;;;47.33;22.67;;;;;;;-0.32;100.00;101177.03;6096472;23;20096;-79
2023/12/03 04:58:58;;;;;;;49.22;23.42;;;;;;;-0.36;100.00;101183.72;6095781;23;20033;-80
2023/12/03 05:01:24;;;;;;;47.30;24.83;;;;;;;-0.42;100.00;101182.56;6095965;23;20025;-78
2023/12/03 05:03:51;;;;;;;52.70;23.20;;;;;;;-0.39;100.00;101190.41;6097266;23;20029;-79
2023/12/03 05:06:20;;;;;;;42.70;24.80;;;;;;;-0.39;100.00;101182.69;6121219;23;20517;-80
2023/12/03 05:08:47;;;;;;;54.20;25.38;;;;;;;-0.39;100.00;101187.84;6121185;23;20030;-80
2023/12/03 05:11:13;;;;;;;52.20;25.70;;;;;;;-0.36;100.00;101188.00;6096514;23;20021;-79
2023/12/03 05:13:40;;;;;;;52.25;24.83;;;;;;;-0.33;100.00;101185.53;6096343;23;20522;-80
2023/12/03 05:16:07;;;;;;;48.92;25.50;;;;;;;-0.31;100.00;101189.06;6120940;23;20077;-79
2023/12/03 05:18:34;;;;;;;50.33;23.63;;;;;;;-0.28;100.00;101193.47;6120541;23;20033;-78
2023/12/03 05:21:02;;;;;;;52.25;25.23;;;;;;;-0.30;100.00;101198.56;6121048;23;20080;-78
2023/12/03 05:23:29;;;;;;;53.83;25.58;;;;;;;-0.30;100.00;101193.41;6120925;23;20398;-78
2023/12/03 05:25:58;;;;;;;53.33;23.77;;;;;;;-0.24;100.00;101197.94;6096774;23;20028;-80
2023/12/03 05:28:28;;;;;;;52.55;26.70;;;;;;;-0.21;100.00;101198.06;6119297;23;20870;-79
2023/12/03 05:30:55;;;;;;;53.53;26.60;;;;;;;-0.23;100.00;101198.00;6120013;23;20025;-78
2023/12/03 05:33:21;;;;;;;54.45;26.40;;;;;;;-0.23;100.00;101207.41;6118978;23;20129;-79
2023/12/03 05:35:48;;;;;;;58.22;27.02;;;;;;;-0.24;100.00;101206.53;6120788;23;20266;-79
2023/12/03 05:38:14;;;;;;;60.28;25.00;;;;;;;-0.21;100.00;101216.06;6120494;23;20021;-81
2023/12/03 05:40:41;;;;;;;51.00;24.00;;;;;;;-0.25;100.00;101216.75;6120770;23;20064;-79
2023/12/03 05:43:10;;;;;;;57.58;26.00;;;;;;;-0.22;100.00;101217.78;6122481;23;20022;-79
2023/12/03 05:45:37;;;;;;;52.08;29.08;;;;;;;-0.21;100.00;101224.69;6122827;23;20017;-79
2023/12/03 05:48:04;;;;;;;55.35;24.85;;;;;;;-0.17;100.00;101226.59;6125854;23;20022;-82
2023/12/03 05:50:31;;;;;;;55.25;26.30;;;;;;;-0.16;100.00;101219.72;6098235;23;20053;-82
2023/12/03 05:52:57;;;;;;;53.88;26.30;;;;;;;-0.15;100.00;101225.78;6120521;23;20076;-80
2023/12/03 05:55:24;;;;;;;58.45;28.67;;;;;;;-0.16;100.00;101224.88;6100234;23;20026;-80
2023/12/03 05:57:51;;;;;;;60.22;29.13;;;;;;;-0.13;100.00;101234.41;6101761;23;20030;-81
2023/12/03 06:00:19;;;;;;;57.13;27.73;;;;;;;-0.10;100.00;101242.31;6126984;23;20028;-80
2023/12/03 06:02:46;;;;;;;58.22;28.10;;;;;;;-0.12;100.00;101243.91;6128411;23;20048;-82
2023/12/03 06:05:13;;;;;;;57.95;25.95;;;;;;;-0.14;100.00;101246.44;6101565;23;20057;-79
2023/12/03 06:07:41;;;;;;;61.95;25.73;;;;;;;-0.15;100.00;101236.94;6099941;23;20017;-78
2023/12/03 06:10:09;;;;;;;60.30;26.08;;;;;;;-0.14;100.00;101249.00;6124674;23;20021;-80
2023/12/03 06:12:35;;;;;;;62.80;29.17;;;;;;;-0.18;100.00;101254.81;6100175;23;20029;-81
2023/12/03 06:15:03;;;;;;;60.50;28.75;;;;;;;-0.17;100.00;101249.75;6124626;23;20021;-80
2023/12/03 06:17:30;;;;;;;59.15;27.60;;;;;;;-0.14;100.00;101245.53;6102333;23;20101;-80
2023/12/03 06:19:57;;;;;;;64.72;30.02;;;;;;;-0.13;100.00;101248.19;6126609;23;20021;-80
2023/12/03 06:22:24;;;;;;;59.83;28.10;;;;;;;-0.10;100.00;101255.16;6101261;23;20029;-81
2023/12/03 06:24:53;;;;;;;64.50;29.15;;;;;;;-0.12;100.00;101252.50;6126251;23;20027;-79
2023/12/03 06:27:21;;;;;;;63.28;28.35;;;;;;;-0.17;100.00;101251.41;6101814;23;20462;-80
2023/12/03 06:29:47;;;;;;;61.90;28.30;;;;;;;-0.16;100.00;101260.91;6102856;23;20093;-81
2023/12/03 06:32:14;;;;;;;62.15;28.52;;;;;;;-0.14;100.00;101256.72;6126048;23;20041;-80
2023/12/03 06:34:41;;;;;;;60.17;27.35;;;;;;;-0.11;100.00;101261.13;6125067;23;20029;-79
2023/12/03 06:37:08;;;;;;;68.70;30.67;;;;;;;-0.16;100.00;101268.63;6102286;23;20525;-80
2023/12/03 06:39:35;;;;;;;57.60;27.52;;;;;;;-0.12;100.00;101267.06;6123006;23;20080;-79
2023/12/03 06:42:02;;;;;;;65.13;28.35;;;;;;;-0.09;100.00;101262.94;6125027;23;20021;-79
2023/12/03 06:44:28;;;;;;;61.05;28.10;;;;;;;-0.07;100.00;101268.16;6121575;23;20021;-81
2023/12/03 06:46:55;;;;;;;62.55;30.02;;;;;;;-0.08;100.00;101264.72;6123120;23;20025;-79
2023/12/03 06:49:27;;;;;;;59.70;27.92;;;;;;;-0.10;100.00;101271.47;6098222;23;20455;-78
2023/12/03 06:51:54;;;;;;;62.15;28.80;;;;;;;-0.05;100.00;101279.41;6122004;23;20103;-78
2023/12/03 06:54:23;;;;;;;61.65;28.35;;;;;;;-0.05;100.00;101280.28;6118449;23;20519;-82
2023/12/03 06:56:50;;;;;;;57.50;29.50;;;;;;;-0.03;100.00;101283.81;6121275;23;20514;-78
2023/12/03 06:59:17;;;;;;;61.92;28.67;;;;;;;-0.01;100.00;101294.19;6093760;23;20346;-78
2023/12/03 07:01:43;;;;;;;59.35;30.98;;;;;;;-0.01;100.00;101286.44;6120452;23;20526;-78
2023/12/03 07:04:10;;;;;;;65.35;28.58;;;;;;;0.01;100.00;101292.53;6120629;23;20456;-79
2023/12/03 07:06:36;;;;;;;59.60;28.35;;;;;;;-0.02;100.00;101297.56;6120834;23;20025;-79
2023/12/03 07:09:03;;;;;;;57.83;26.80;;;;;;;-0.06;100.00;101293.97;6121264;23;20088;-79
2023/12/03 07:11:30;;;;;;;63.97;29.65;;;;;;;-0.09;100.00;101293.84;6120186;23;20025;-80
2023/12/03 07:13:57;;;;;;;54.47;25.52;;;;;;;-0.09;100.00;101296.41;6096882;23;20451;-80
2023/12/03 07:16:23;;;;;;;57.85;28.38;;;;;;;-0.11;100.00;101308.31;6096057;23;20371;-79
2023/12/03 07:18:50;;;;;;;53.50;26.45;;;;;;;-0.06;100.00;101306.81;6095373;23;20698;-79
2023/12/03 07:21:16;;;;;;;62.90;27.85;;;;;;;-0.07;100.00;101315.34;6120893;23;20618;-80
2023/12/03 07:23:43;;;;;;;58.33;28.08;;;;;;;-0.04;100.00;101320.66;6096338;23;20618;-80
2023/12/03 07:26:10;;;;;;;56.95;28.45;;;;;;;-0.03;100.00;101319.84;6122149;23;20053;-80
2023/12/03 07:28:38;;;;;;;60.55;28.13;;;;;;;-0.03;100.00;101330.16;6095356;23;20025;-80
2023/12/03 07:31:04;;;;;;;63.30;29.10;;;;;;;-0.01;100.00;101333.66;6072154;23;20501;-78
2023/12/03 07:33:34;;;;;;;59.97;27.67;;;;;;;-0.01;100.00;101328.50;6119057;23;20541;-79
2023/12/03 07:36:03;;;;;;;60.13;28.88;;;;;;;-0.02;100.00;101336.16;6094624;23;20027;-80
2023/12/03 07:38:30;;;;;;;65.68;27.50;;;;;;;-0.01;100.00;101333.66;6096093;23;20742;-79
2023/12/03 07:40:56;;;;;;;61.38;28.92;;;;;;;-0.03;100.00;101335.28;6096156;23;20355;-80
2023/12/03 07:43:23;;;;;;;58.17;25.58;;;;;;;-0.03;100.00;101334.41;6120977;23;20530;-79
2023/12/03 07:45:50;;;;;;;61.85;29.58;;;;;;;0.01;100.00;101338.00;6118003;23;20088;-78
2023/12/03 07:48:16;;;;;;;64.18;27.02;;;;;;;0.01;100.00;101341.44;6144688;23;20053;-82
2023/12/03 07:50:43;;;;;;;63.50;30.30;;;;;;;-0.02;100.00;101339.59;6096287;23;20033;-79
2023/12/03 07:53:10;;;;;;;57.60;28.98;;;;;;;0.01;100.00;101346.59;6121580;23;20022;-78
2023/12/03 07:55:38;;;;;;;57.33;27.95;;;;;;;0.01;100.00;101353.44;6118810;23;20089;-81
2023/12/03 07:58:07;;;;;;;54.88;27.73;;;;;;;0.03;100.00;101346.66;6144655;23;20056;-78
2023/12/03 08:00:34;;;;;;;55.38;27.15;;;;;;;0.03;100.00;101350.13;6120464;23;20399;-82
2023/12/03 08:03:01;;;;;;;51.13;27.67;;;;;;;0.05;100.00;101351.06;6096598;23;20029;-79
2023/12/03 08:05:27;;;;;;;51.47;25.95;;;;;;;0.04;100.00;101358.72;6087722;23;20037;-79
2023/12/03 08:07:54;;;;;;;55.15;25.85;;;;;;;0.05;100.00;101355.34;6091422;23;20100;-79
2023/12/03 08:10:20;;;;;;;61.58;26.75;;;;;;;0.04;100.00;101356.13;6091221;23;20704;-79
2023/12/03 08:12:47;;;;;;;53.05;26.10;;;;;;;0.08;100.00;101356.38;6115002;23;20029;-78
2023/12/03 08:15:13;;;;;;;56.30;25.55;;;;;;;0.09;100.00;101359.81;6090319;23;20376;-78
2023/12/03 08:17:40;;;;;;;53.72;27.65;;;;;;;0.12;100.00;101362.53;6090427;23;20022;-80
2023/12/03 08:20:10;;;;;;;51.15;25.52;;;;;;;0.13;100.00;101359.13;6090793;23;20049;-78
2023/12/03 08:22:36;;;;;;;46.55;25.02;;;;;;;0.16;100.00;101354.13;6091828;23;20026;-79
2023/12/03 08:25:06;;;;;;;53.15;25.45;;;;;;;0.16;100.00;101364.44;6092092;23;20029;-79
2023/12/03 08:27:33;;;;;;;54.83;26.13;;;;;;;0.19;100.00;101371.41;6068286;23;20076;-78
2023/12/03 08:29:59;;;;;;;53.72;26.45;;;;;;;0.18;100.00;101364.50;6091701;23;20049;-78
2023/12/03 08:32:29;;;;;;;59.90;28.58;;;;;;;0.18;100.00;101367.94;6091495;23;20022;-80
2023/12/03 08:34:55;;;;;;;52.60;24.10;;;;;;;0.15;100.00;101365.25;6091287;23;20061;-79
2023/12/03 08:37:22;;;;;;;61.42;27.95;;;;;;;0.12;100.00;101373.72;6092043;23;20022;-82
2023/12/03 08:39:48;;;;;;;52.72;25.55;;;;;;;0.12;100.00;101372.84;6090464;23;20049;-79
2023/12/03 08:42:16;;;;;;;59.58;26.88;;;;;;;0.09;100.00;101375.25;6091834;23;20026;-79
2023/12/03 08:44:42;;;;;;;56.17;26.23;;;;;;;0.00;100.00;101373.16;6090767;23;20469;-82
2023/12/03 08:47:09;;;;;;;56.42;25.75;;;;;;;0.01;100.00;101386.91;6090643;23;20022;-79
2023/12/03 08:49:36;;;;;;;61.38;28.08;;;;;;;0.03;100.00;101383.59;6066911;23;20457;-79
2023/12/03 08:52:02;;;;;;;71.53;30.85;;;;;;;0.03;100.00;101385.25;6116752;23;20025;-79
2023/12/03 08:54:30;;;;;;;53.72;27.65;;;;;;;0.05;100.00;101386.22;6091322;23;20022;-79
2023/12/03 08:56:56;;;;;;;56.95;27.70;;;;;;;0.06;100.00;101388.88;6116061;23;20014;-79
2023/12/03 08:59:24;;;;;;;60.17;27.88;;;;;;;0.09;100.00;101401.00;6088400;23;20030;-76
2023/12/03 09:01:52;;;;;;;56.47;26.25;;;;;;;0.00;100.00;101401.47;6117595;23;20459;-78
2023/12/03 09:04:19;;;;;;;56.33;25.52;;;;;;;0.02;100.00;101410.13;6103692;23;20486;-78
2023/12/03 09:06:46;;;;;;;63.13;27.08;;;;;;;0.01;100.00;101405.78;6097929;23;20406;-78
2023/12/03 09:09:13;;;;;;;60.08;27.02;;;;;;;-0.01;100.00;101412.56;6098026;23;20048;-78
2023/12/03 09:11:43;;;;;;;59.15;28.25;;;;;;;0.07;100.00;101418.94;6096401;23;20260;-78
2023/12/03 09:14:10;;;;;;;65.63;26.63;;;;;;;0.06;100.00;101418.88;6095762;23;20032;-78
2023/12/03 09:16:36;;;;;;;66.72;28.40;;;;;;;0.15;100.00;101421.88;6097330;23;20498;-79
2023/12/03 09:19:03;;;;;;;62.08;27.52;;;;;;;0.19;100.00;101423.78;6121163;23;20029;-78
2023/12/03 09:21:30;;;;;;;66.80;28.98;;;;;;;0.18;100.00;101428.88;6122289;23;20033;-79
2023/12/03 09:23:56;;;;;;;67.20;27.50;;;;;;;0.20;100.00;101428.13;6122602;23;20029;-80
2023/12/03 09:26:23;;;;;;;60.15;26.08;;;;;;;0.22;100.00;101430.75;6123563;23;20026;-77
2023/12/03 09:28:50;;;;;;;63.83;27.80;;;;;;;0.26;100.00;101430.09;6097912;23;20025;-79
2023/12/03 09:31:16;;;;;;;66.55;28.55;;;;;;;0.31;100.00;101433.75;6123990;23;20100;-77
2023/12/03 09:33:44;;;;;;;69.13;28.88;;;;;;;0.41;100.00;101438.50;6097830;23;20025;-78
2023/12/03 09:36:11;;;;;;;69.35;29.38;;;;;;;0.42;100.00;101440.28;6124034;23;20097;-80
2023/12/03 09:38:38;;;;;;;68.32;28.15;;;;;;;0.50;100.00;101445.78;6122572;23;20053;-79
2023/12/03 09:41:09;;;;;;;62.78;27.40;;;;;;;0.52;100.00;101449.28;6122735;23;20032;-80
2023/12/03 09:43:38;;;;;;;53.33;25.35;;;;;;;0.49;100.00;101444.00;6099345;23;20025;-79
2023/12/03 09:46:12;;;;;;;65.70;27.90;;;;;;;0.45;100.00;101442.97;6075592;23;20025;-78
2023/12/03 09:48:42;;;;;;;;;;;;;;;0.48;100.00;101443.16;6123220;23;20049;-79
2023/12/03 09:51:11;;;;;;;59.72;23.60;;;;;;;0.47;100.00;101448.19;6123432;23;19916;-79
2023/12/03 09:53:44;;;;;;;59.25;25.58;;;;;;;0.45;100.00;101452.41;6098043;23;20021;-80
2023/12/03 09:56:13;;;;;;;58.47;25.03;;;;;;;0.44;100.00;101451.56;6124455;23;20024;-79
2023/12/03 09:58:42;;;;;;;49.75;23.55;;;;;;;0.46;100.00;101447.34;6098868;23;20367;-78
2023/12/03 10:01:08;;;;;;;67.80;26.70;;;;;;;0.42;100.00;101454.88;6123511;23;20026;-79
2023/12/03 10:03:35;;;;;;;61.45;25.25;;;;;;;0.46;100.00;101447.34;6120304;23;20025;-80
2023/12/03 10:06:01;;;;;;;50.30;26.40;;;;;;;0.49;100.00;101454.31;6104495;23;20022;-79
2023/12/03 10:08:41;;;;;;;56.28;24.95;;;;;;;0.47;100.00;101455.94;6127102;23;20021;-79
2023/12/03 10:11:13;;;;;;;48.13;24.02;;;;;;;0.48;100.00;101463.75;6101807;23;20321;-79
2023/12/03 10:13:39;;;;;;;49.38;23.88;;;;;;;0.51;100.00;101460.44;6126482;23;20104;-78
2023/12/03 10:16:13;;;;;;;55.85;25.85;;;;;;;0.54;100.00;101468.28;6100846;23;20022;-79
2023/12/03 10:18:40;;;;;;;;;;;;;;;0.60;100.00;101472.81;6124610;23;20041;-79
2023/12/03 10:21:09;;;;;;;50.10;21.80;;;;;;;0.61;100.00;101467.75;6102569;23;19920;-79
2023/12/03 10:23:39;;;;;;;45.00;20.73;;;;;;;0.56;100.00;101471.84;6126028;23;20105;-78
2023/12/03 10:26:15;;;;;;;51.33;22.90;;;;;;;0.56;100.00;101471.84;6101526;23;20336;-79
2023/12/03 10:28:42;;;;;;;49.38;22.23;;;;;;;0.53;100.00;101473.38;6129460;23;20059;-79
2023/12/03 10:31:13;;;;;;;57.53;28.30;;;;;;;0.56;100.00;101466.69;6104077;23;20511;-79
2023/12/03 10:33:39;;;;;;;52.55;25.63;;;;;;;0.68;100.00;101468.00;6105186;23;20025;-80
2023/12/03 10:36:07;;;;;;;50.40;24.80;;;;;;;0.77;100.00;101473.56;6104608;23;20022;-80
2023/12/03 10:38:44;;;;;;;51.58;23.10;;;;;;;0.81;100.00;101468.63;6102433;23;20234;-80
2023/12/03 10:41:13;;;;;;;46.30;20.77;;;;;;;0.87;100.00;101468.00;6105532;23;20109;-78
2023/12/03 10:43:45;;;;;;;53.85;23.92;;;;;;;0.97;100.00;101465.03;6127941;23;20341;-78
2023/12/03 10:46:14;;;;;;;47.85;24.52;;;;;;;0.97;100.00;101462.44;6127780;23;20017;-79
2023/12/03 10:48:41;;;;;;;47.85;22.92;;;;;;;0.90;100.00;101467.25;6100979;23;20043;-80
2023/12/03 10:51:11;;;;;;;43.67;21.10;;;;;;;0.87;100.00;101474.88;6102710;23;20025;-80
2023/12/03 10:53:39;;;;;;;45.85;21.08;;;;;;;0.87;100.00;101478.31;6128301;23;20029;-80
2023/12/03 10:56:08;;;;;;;39.97;19.05;;;;;;;0.88;100.00;101476.66;6109285;23;20059;-82
2023/12/03 10:58:41;;;;;;;42.25;20.40;;;;;;;0.84;100.00;101469.59;6132320;23;20028;-80
2023/12/03 11:01:25;;;;;;;43.90;20.88;;;;;;;0.82;100.00;101478.13;6134514;23;20407;-79
2023/12/03 11:04:02;;;;;;;41.10;19.95;;;;;;;0.79;100.00;101475.41;6109842;23;20044;-81
2023/12/03 11:06:32;;;;;;;43.30;20.70;;;;;;;0.85;100.00;101471.34;6131165;23;20017;-80